Terminal Aerodrome Forecast
Issued by NWS Blacksburg, VA

Current Version | Previous Version | Text Only | Print | Product List | Glossary Off
Versions: 1 2 3 4 5 6 7 8 9 10 11 12 13 14 15 16 17 18 19 20 21 22 23 24 25 26 27 28 29 30 31 32 33 34 35 36 37 38 39 40 41 42 43 44 45 46 47 48 49 50

874
FTUS41 KRNK 151729
TAFBLF
TAF
KBLF 151729Z 1518/1618 27004KT P6SM -SHRA OVC006
      TEMPO 1518/1520 4SM -SHRA OVC003
     FM152000 29006KT P6SM VCSH BKN010
     FM160000 30004KT P6SM BKN030
     FM160400 VRB03KT P6SM SCT015
     FM160600 00000KT 2SM BR SCT010
     FM161200 00000KT P6SM SCT010
     FM161600 00000KT P6SM SCT150=

USA.gov is the U.S. government's official web portal to all federal, state and local government web resources and services.